Time;durP1;ratioP1;P1;durP2;ratioP2;P2;SDS_P1;SDS_P2;PMS_P1;PMS_P2;Temp;Humidity;BMP_temperature;BMP_pressure;BME280_temperature;BME280_humidity;BME280_pressure;Samples;Min_cycle;Max_cycle;Signal;HPM_P1;HPM_P2
2023/11/08 00:00:13;;;;;;;14.25;10.90;;;;;;;8.87;69.79;93599.72;514088;28;908;-68
2023/11/08 00:00:28;;;;;;;14.93;11.07;;;;;;;8.89;69.94;93600.66;513089;28;988;-68
2023/11/08 00:00:44;;;;;;;15.35;10.77;;;;;;;8.91;69.63;93602.88;514009;28;782;-68
2023/11/08 00:01:00;;;;;;;16.63;11.17;;;;;;;8.92;69.56;93601.63;514031;28;781;-68
2023/11/08 00:01:16;;;;;;;15.25;11.40;;;;;;;8.94;69.42;93599.78;513840;28;905;-68
2023/11/08 00:01:31;;;;;;;14.93;11.07;;;;;;;8.97;69.37;93601.47;514079;28;766;-68
2023/11/08 00:01:47;;;;;;;14.50;10.53;;;;;;;8.88;69.53;93587.44;513871;28;885;-68
2023/11/08 00:02:02;;;;;;;13.05;10.20;;;;;;;8.99;69.55;93609.19;513826;28;836;-68
2023/11/08 00:02:18;;;;;;;12.17;9.93;;;;;;;8.99;69.54;93607.19;513888;28;892;-68
2023/11/08 00:02:33;;;;;;;12.18;10.25;;;;;;;9.00;69.50;93607.94;514008;28;782;-68
2023/11/08 00:02:49;;;;;;;11.83;10.10;;;;;;;9.01;69.50;93609.41;513841;28;798;-68
2023/11/08 00:03:04;;;;;;;12.50;9.38;;;;;;;9.03;69.64;93607.59;513832;28;836;-68
2023/11/08 00:03:20;;;;;;;12.40;9.03;;;;;;;9.04;69.63;93603.59;513994;28;853;-68
2023/11/08 00:03:35;;;;;;;13.23;9.93;;;;;;;9.04;69.66;93603.59;513955;28;810;-68
2023/11/08 00:03:50;;;;;;;15.43;10.50;;;;;;;9.06;69.83;93606.53;513804;28;841;-68
2023/11/08 00:04:06;;;;;;;13.87;9.67;;;;;;;9.03;69.98;93604.84;513974;28;829;-68
2023/11/08 00:04:22;;;;;;;11.45;8.98;;;;;;;9.02;70.46;93606.13;513899;28;892;-68
2023/11/08 00:04:37;;;;;;;11.80;8.90;;;;;;;9.02;69.97;93605.38;513934;28;873;-68
2023/11/08 00:04:52;;;;;;;12.83;9.50;;;;;;;9.02;70.28;93599.88;514010;28;809;-68
2023/11/08 00:05:08;;;;;;;13.10;9.73;;;;;;;9.02;70.06;93603.38;513941;28;778;-68
2023/11/08 00:05:26;;;;;;;14.90;9.70;;;;;;;9.03;70.08;93598.63;513984;28;932;-68
2023/11/08 00:05:44;;;;;;;13.40;9.30;;;;;;;9.04;70.03;93594.56;514024;28;952;-68
2023/11/08 00:05:59;;;;;;;13.48;9.32;;;;;;;9.05;69.84;93598.81;513810;28;971;-68
2023/11/08 00:06:14;;;;;;;12.53;8.67;;;;;;;9.04;70.10;93600.81;514001;28;873;-68
2023/11/08 00:06:30;;;;;;;10.93;7.83;;;;;;;9.05;69.84;93596.78;513840;28;833;-68
2023/11/08 00:06:45;;;;;;;9.88;7.45;;;;;;;9.07;69.79;93599.03;513971;28;817;-68
2023/11/08 00:07:03;;;;;;;8.33;7.10;;;;;;;9.07;69.71;93599.03;513971;28;893;-68
2023/11/08 00:07:18;;;;;;;11.30;8.00;;;;;;;9.08;69.49;93597.72;513868;28;880;-68
2023/11/08 00:07:33;;;;;;;12.63;8.67;;;;;;;9.09;69.30;93599.22;513940;28;881;-68
2023/11/08 00:07:49;;;;;;;12.07;8.80;;;;;;;9.07;69.50;93597.00;513366;28;1128;-68
2023/11/08 00:08:06;;;;;;;10.68;8.68;;;;;;;9.08;69.14;93598.47;513724;28;1088;-68
2023/11/08 00:08:22;;;;;;;10.18;8.35;;;;;;;9.07;69.44;93590.75;513966;28;918;-68
2023/11/08 00:08:37;;;;;;;10.75;8.45;;;;;;;9.07;69.25;93596.28;513904;28;897;-68
2023/11/08 00:08:53;;;;;;;13.30;9.20;;;;;;;9.01;69.49;93595.63;514008;28;964;-68
2023/11/08 00:09:12;;;;;;;13.93;9.60;;;;;;;8.99;69.70;93592.69;513958;28;825;-68
2023/11/08 00:09:27;;;;;;;12.35;9.75;;;;;;;8.95;69.69;93586.75;513890;28;1213;-68
2023/11/08 00:09:43;;;;;;;11.27;9.03;;;;;;;8.95;69.68;93592.28;513956;28;832;-68
2023/11/08 00:09:58;;;;;;;10.65;9.10;;;;;;;8.95;70.09;93584.00;513805;28;782;-68
2023/11/08 00:10:14;;;;;;;13.27;9.90;;;;;;;8.97;70.08;93598.72;513922;28;829;-68
2023/11/08 00:10:31;;;;;;;13.88;9.85;;;;;;;8.97;69.88;93586.97;513892;28;821;-68
2023/11/08 00:10:49;;;;;;;13.07;10.50;;;;;;;8.98;69.85;93591.22;513895;28;836;-68
2023/11/08 00:11:04;;;;;;;12.23;10.20;;;;;;;8.98;69.69;93588.47;513942;28;871;-68
2023/11/08 00:11:23;;;;;;;11.95;9.50;;;;;;;8.98;69.97;93589.19;514077;28;801;-68
2023/11/08 00:11:39;;;;;;;12.13;9.57;;;;;;;8.98;69.87;93591.97;513915;28;1085;-68
2023/11/08 00:11:55;;;;;;;11.18;9.05;;;;;;;8.99;69.97;93587.91;513899;28;933;-68
2023/11/08 00:12:10;;;;;;;12.37;9.00;;;;;;;8.98;70.35;93586.44;513920;28;944;-68
2023/11/08 00:12:25;;;;;;;12.57;8.95;;;;;;;8.99;70.31;93587.91;513834;28;802;-68
2023/11/08 00:12:41;;;;;;;11.37;8.33;;;;;;;9.00;70.40;93583.91;514101;28;775;-68
2023/11/08 00:12:58;;;;;;;10.55;8.13;;;;;;;9.00;70.35;93589.41;513852;28;841;-68
2023/11/08 00:13:19;;;;;;;12.57;8.95;;;;;;;8.99;70.53;93585.16;514041;28;869;-68
2023/11/08 00:13:34;;;;;;;13.02;9.60;;;;;;;8.89;70.70;93588.91;513859;28;1006;-68
2023/11/08 00:13:51;;;;;;;13.90;9.88;;;;;;;8.89;71.08;93581.41;513955;28;862;-68
2023/11/08 00:14:08;;;;;;;12.75;10.23;;;;;;;8.90;71.07;93585.63;513987;28;989;-68
2023/11/08 00:14:23;;;;;;;12.15;10.13;;;;;;;8.85;70.90;93592.00;514031;28;849;-68
2023/11/08 00:14:38;;;;;;;12.25;9.57;;;;;;;8.81;71.19;93588.84;513953;28;794;-68
2023/11/08 00:14:57;;;;;;;12.57;9.87;;;;;;;8.81;71.06;93588.09;513941;28;985;-69
2023/11/08 00:15:12;;;;;;;13.07;9.43;;;;;;;8.75;71.10;93573.72;513726;28;959;-68
2023/11/08 00:15:28;;;;;;;13.17;8.70;;;;;;;8.78;71.11;93578.88;514060;28;763;-68
2023/11/08 00:15:43;;;;;;;12.38;8.70;;;;;;;8.83;71.16;93586.28;513763;28;864;-68
2023/11/08 00:15:59;;;;;;;11.63;9.07;;;;;;;8.85;71.10;93588.50;513705;28;841;-68
2023/11/08 00:16:16;;;;;;;12.13;9.30;;;;;;;8.86;71.19;93589.97;513797;28;876;-68
2023/11/08 00:16:32;;;;;;;12.23;9.10;;;;;;;8.88;71.24;93596.41;513762;28;1246;-68
2023/11/08 00:16:47;;;;;;;11.88;8.98;;;;;;;8.88;71.10;93587.44;513745;28;821;-68
2023/11/08 00:17:03;;;;;;;12.23;9.30;;;;;;;8.89;71.10;93595.16;512233;28;1300;-68
2023/11/08 00:17:19;;;;;;;11.07;9.07;;;;;;;8.89;71.29;93597.91;511765;29;757;-68
2023/11/08 00:17:35;;;;;;;10.63;8.65;;;;;;;8.91;71.38;93603.63;511990;29;1071;-68
2023/11/08 00:17:51;;;;;;;11.15;8.63;;;;;;;8.91;71.14;93600.13;511740;29;1011;-68
2023/11/08 00:18:06;;;;;;;11.33;8.60;;;;;;;8.90;71.13;93593.88;511716;29;797;-68
2023/11/08 00:18:22;;;;;;;11.88;8.80;;;;;;;8.93;70.97;93594.81;511703;29;874;-68
2023/11/08 00:18:37;;;;;;;11.38;9.27;;;;;;;8.94;71.18;93594.28;511801;29;790;-68
2023/11/08 00:18:53;;;;;;;12.03;9.57;;;;;;;8.94;71.25;93601.81;511757;29;754;-68
2023/11/08 00:19:08;;;;;;;14.00;9.47;;;;;;;8.93;71.03;93592.81;511556;29;1918;-68
2023/11/08 00:19:24;;;;;;;13.70;9.57;;;;;;;8.94;70.86;93597.03;511754;29;864;-68
2023/11/08 00:19:40;;;;;;;13.20;9.80;;;;;;;8.96;71.06;93602.78;511975;29;841;-68
2023/11/08 00:19:56;;;;;;;11.88;9.23;;;;;;;8.96;70.71;93597.25;511655;29;947;-68
2023/11/08 00:20:12;;;;;;;11.17;8.70;;;;;;;8.98;70.57;93596.72;511855;29;779;-68
2023/11/08 00:20:27;;;;;;;12.30;9.02;;;;;;;8.97;70.82;93598.72;511674;29;913;-68
2023/11/08 00:20:43;;;;;;;13.30;9.50;;;;;;;8.96;70.80;93594.50;511969;29;809;-68
2023/11/08 00:20:58;;;;;;;12.73;9.43;;;;;;;8.92;70.78;93599.59;511721;29;838;-68
2023/11/08 00:21:13;;;;;;;11.40;9.23;;;;;;;8.91;70.93;93598.13;511762;29;880;-68
2023/11/08 00:21:30;;;;;;;10.20;8.43;;;;;;;8.90;71.06;93599.38;511722;29;830;-68
2023/11/08 00:21:45;;;;;;;10.40;8.35;;;;;;;8.89;70.74;93594.41;511906;29;929;-68
2023/11/08 00:22:01;;;;;;;12.13;9.15;;;;;;;8.86;70.81;93595.47;511684;29;869;-68
2023/11/08 00:22:16;;;;;;;11.27;8.80;;;;;;;8.86;70.98;93598.22;511802;29;766;-68
2023/11/08 00:22:33;;;;;;;10.60;8.43;;;;;;;8.87;70.87;93589.44;511943;29;861;-68
2023/11/08 00:22:49;;;;;;;10.05;8.63;;;;;;;8.88;70.65;93595.69;511915;29;818;-68
2023/11/08 00:23:05;;;;;;;11.38;8.95;;;;;;;8.89;70.68;93597.91;511854;29;912;-68
2023/11/08 00:23:20;;;;;;;12.20;8.83;;;;;;;8.85;70.72;93583.75;511899;29;780;-68
2023/11/08 00:23:35;;;;;;;10.68;8.27;;;;;;;8.83;71.00;93583.53;511857;29;853;-68
2023/11/08 00:23:51;;;;;;;11.93;8.30;;;;;;;8.79;71.17;93588.59;511932;29;958;-68
2023/11/08 00:24:07;;;;;;;12.87;8.17;;;;;;;8.77;71.53;93588.41;511925;29;885;-68
2023/11/08 00:24:22;;;;;;;13.15;8.43;;;;;;;8.72;71.66;93586.53;511884;29;893;-68
2023/11/08 00:24:38;;;;;;;14.05;8.95;;;;;;;8.73;71.67;93584.50;511841;29;950;-68
2023/11/08 00:24:53;;;;;;;12.27;8.37;;;;;;;8.74;71.64;93583.97;511944;29;860;-68
2023/11/08 00:25:09;;;;;;;10.55;8.07;;;;;;;8.77;71.83;93587.69;511903;29;770;-68
2023/11/08 00:25:24;;;;;;;10.93;8.20;;;;;;;8.74;71.88;93588.75;511974;29;1105;-68
2023/11/08 00:25:40;;;;;;;11.27;7.93;;;;;;;8.73;71.71;93592.75;511987;29;888;-68
2023/11/08 00:25:55;;;;;;;10.00;7.73;;;;;;;8.73;71.67;93588.00;511919;29;1008;-68
2023/11/08 00:26:12;;;;;;;9.97;7.77;;;;;;;8.74;71.58;93588.75;511838;29;837;-68
2023/11/08 00:26:27;;;;;;;10.57;7.63;;;;;;;8.73;71.83;93598.25;511890;29;926;-68
2023/11/08 00:26:42;;;;;;;8.93;6.70;;;;;;;8.72;71.93;93586.53;511896;29;1051;-68
2023/11/08 00:26:58;;;;;;;8.70;6.38;;;;;;;8.73;72.27;93599.00;511775;29;857;-69
2023/11/08 00:27:13;;;;;;;9.27;6.63;;;;;;;8.72;72.31;93600.28;511898;29;813;-68
2023/11/08 00:27:30;;;;;;;8.80;7.22;;;;;;;8.72;72.15;93594.78;511667;29;834;-68
2023/11/08 00:27:45;;;;;;;8.02;7.05;;;;;;;8.72;72.19;93594.78;511893;29;964;-68
2023/11/08 00:28:00;;;;;;;9.10;7.07;;;;;;;8.71;72.43;93598.81;511849;29;892;-68
2023/11/08 00:28:16;;;;;;;9.77;7.20;;;;;;;8.70;72.15;93599.34;511845;29;901;-68
2023/11/08 00:28:31;;;;;;;10.23;7.40;;;;;;;8.66;72.27;93599.69;511907;29;782;-68
2023/11/08 00:28:47;;;;;;;9.90;7.28;;;;;;;8.64;72.20;93599.44;511897;29;825;-68
2023/11/08 00:29:02;;;;;;;8.50;7.30;;;;;;;8.65;72.47;93591.94;511755;29;822;-68
2023/11/08 00:29:17;;;;;;;9.00;7.63;;;;;;;8.65;72.66;93600.94;511801;29;896;-68
2023/11/08 00:29:33;;;;;;;9.85;7.18;;;;;;;8.66;72.60;93598.94;511977;29;865;-68
2023/11/08 00:29:48;;;;;;;8.50;6.60;;;;;;;8.65;72.45;93598.19;511994;29;788;-68
2023/11/08 00:30:05;;;;;;;8.10;6.80;;;;;;;8.65;72.57;93597.44;511746;29;757;-67
2023/11/08 00:30:21;;;;;;;8.25;6.95;;;;;;;8.69;72.47;93597.84;511857;29;898;-68
2023/11/08 00:30:36;;;;;;;9.68;7.68;;;;;;;8.70;72.59;93600.09;511804;29;901;-68
2023/11/08 00:30:52;;;;;;;9.30;7.60;;;;;;;8.71;72.37;93587.78;511892;29;865;-68
2023/11/08 00:31:08;;;;;;;8.43;6.90;;;;;;;8.66;72.43;93585.16;511917;29;934;-68
2023/11/08 00:31:24;;;;;;;9.07;7.05;;;;;;;8.74;72.25;93586.00;511963;29;888;-68
2023/11/08 00:31:39;;;;;;;8.38;6.82;;;;;;;8.73;72.29;93585.25;511698;29;816;-68
2023/11/08 00:31:54;;;;;;;8.83;6.70;;;;;;;8.73;72.59;93588.00;511957;29;857;-68
2023/11/08 00:32:10;;;;;;;8.53;6.53;;;;;;;8.73;72.62;93584.50;511994;29;770;-68
2023/11/08 00:32:25;;;;;;;7.10;5.80;;;;;;;8.74;72.54;93588.75;511869;29;905;-68
2023/11/08 00:32:41;;;;;;;6.90;5.23;;;;;;;8.73;72.74;93590.00;512083;29;811;-68
2023/11/08 00:32:56;;;;;;;5.95;5.15;;;;;;;8.74;72.89;93583.22;511706;29;938;-68
2023/11/08 00:33:11;;;;;;;5.87;5.30;;;;;;;8.75;72.85;93579.94;511859;29;833;-68
2023/11/08 00:33:27;;;;;;;5.97;5.10;;;;;;;8.77;72.85;93584.94;511924;29;1047;-68
2023/11/08 00:33:42;;;;;;;7.30;5.10;;;;;;;8.77;72.89;93577.38;511916;29;866;-68
2023/11/08 00:33:58;;;;;;;9.03;5.30;;;;;;;8.79;72.94;93579.63;511718;29;901;-68
2023/11/08 00:34:15;;;;;;;9.40;5.18;;;;;;;8.79;73.25;93580.34;513113;28;2355;-68
2023/11/08 00:34:31;;;;;;;9.80;5.35;;;;;;;8.81;73.08;93582.59;513870;28;917;-68
2023/11/08 00:34:48;;;;;;;8.47;5.77;;;;;;;8.81;72.97;93580.56;513947;28;876;-68
2023/11/08 00:35:04;;;;;;;6.72;5.72;;;;;;;8.82;73.29;93584.78;513796;28;849;-68
2023/11/08 00:35:20;;;;;;;6.45;5.25;;;;;;;8.83;73.47;93586.28;513928;28;856;-68
2023/11/08 00:35:35;;;;;;;6.50;5.15;;;;;;;8.82;73.40;93587.56;513897;28;912;-68
2023/11/08 00:35:51;;;;;;;7.50;5.37;;;;;;;8.68;73.70;93558.59;513833;28;887;-68
2023/11/08 00:36:06;;;;;;;7.80;5.00;;;;;;;8.54;74.21;93546.13;513903;28;797;-68
2023/11/08 00:36:22;;;;;;;5.87;4.03;;;;;;;8.56;74.37;93554.59;513874;28;889;-68
2023/11/08 00:36:37;;;;;;;5.18;3.97;;;;;;;8.70;74.48;93583.56;513859;28;924;-68
2023/11/08 00:36:52;;;;;;;5.03;4.10;;;;;;;8.70;74.91;93583.56;513991;28;868;-68
2023/11/08 00:37:09;;;;;;;4.53;3.83;;;;;;;8.72;74.89;93578.28;513749;28;769;-68
2023/11/08 00:37:25;;;;;;;4.85;4.10;;;;;;;8.74;75.01;93580.47;513798;28;919;-68
2023/11/08 00:37:40;;;;;;;6.03;4.47;;;;;;;8.69;75.49;93579.31;513916;28;896;-68
2023/11/08 00:37:56;;;;;;;6.90;4.30;;;;;;;8.68;75.71;93580.63;513756;28;765;-68
2023/11/08 00:38:12;;;;;;;7.20;4.28;;;;;;;8.69;75.71;93573.81;513952;28;1042;-68
2023/11/08 00:38:27;;;;;;;5.93;3.85;;;;;;;8.72;75.52;93575.53;513701;28;865;-68
2023/11/08 00:38:43;;;;;;;3.63;3.30;;;;;;;8.75;75.56;93573.72;513723;28;781;-68
2023/11/08 00:38:58;;;;;;;4.23;3.70;;;;;;;8.76;75.56;93575.19;513571;28;1970;-68
2023/11/08 00:39:15;;;;;;;4.85;4.00;;;;;;;8.79;75.51;93563.13;513943;28;769;-68
2023/11/08 00:39:30;;;;;;;4.20;3.80;;;;;;;8.81;75.69;93574.31;513763;28;861;-68
2023/11/08 00:39:47;;;;;;;5.17;3.70;;;;;;;8.82;75.63;93565.53;513813;28;870;-68
2023/11/08 00:40:04;;;;;;;5.60;3.90;;;;;;;8.83;75.45;93564.25;513720;28;896;-68
2023/11/08 00:40:19;;;;;;;5.22;3.88;;;;;;;8.84;75.54;93565.72;514008;28;863;-68
2023/11/08 00:40:34;;;;;;;5.67;3.77;;;;;;;8.86;75.53;93565.19;513708;28;833;-68
2023/11/08 00:40:50;;;;;;;5.43;3.90;;;;;;;8.88;75.40;93574.41;513646;28;936;-68
2023/11/08 00:41:05;;;;;;;5.03;3.75;;;;;;;8.90;75.29;93563.59;513749;28;825;-68
2023/11/08 00:41:20;;;;;;;4.60;3.40;;;;;;;8.90;75.27;93563.59;513636;28;963;-68
2023/11/08 00:41:36;;;;;;;5.20;3.70;;;;;;;8.92;75.34;93561.03;513725;28;825;-68
2023/11/08 00:41:51;;;;;;;4.90;3.72;;;;;;;8.93;75.40;93565.28;513647;28;841;-68
2023/11/08 00:42:07;;;;;;;4.27;3.83;;;;;;;8.94;75.03;93566.03;513782;28;785;-68
2023/11/08 00:42:22;;;;;;;4.90;4.23;;;;;;;8.93;75.13;93562.53;513979;28;800;-68
2023/11/08 00:42:37;;;;;;;5.55;4.10;;;;;;;8.94;74.95;93568.78;513648;28;948;-68
2023/11/08 00:42:53;;;;;;;5.67;4.27;;;;;;;8.93;74.78;93568.03;513769;28;797;-68
2023/11/08 00:43:10;;;;;;;5.77;4.13;;;;;;;8.94;74.86;93575.00;513910;28;801;-68
2023/11/08 00:43:25;;;;;;;5.05;3.80;;;;;;;8.93;74.67;93568.03;513733;28;852;-68
2023/11/08 00:43:43;;;;;;;4.60;4.10;;;;;;;8.95;74.75;93565.47;513893;28;836;-68
2023/11/08 00:43:59;;;;;;;5.47;4.47;;;;;;;8.95;74.58;93568.22;513837;28;975;-68
2023/11/08 00:44:15;;;;;;;4.47;4.05;;;;;;;8.97;74.35;93562.94;512804;28;1406;-68
2023/11/08 00:44:31;;;;;;;4.63;3.70;;;;;;;8.91;74.31;93558.81;511928;29;850;-68
2023/11/08 00:44:46;;;;;;;5.65;3.78;;;;;;;8.89;74.26;93561.38;511920;29;825;-68
2023/11/08 00:45:02;;;;;;;4.13;3.60;;;;;;;8.90;74.05;93568.38;511854;29;762;-68
2023/11/08 00:45:18;;;;;;;4.68;3.65;;;;;;;8.91;73.77;93554.06;511926;29;864;-68
2023/11/08 00:45:34;;;;;;;6.05;3.65;;;;;;;8.93;74.00;93557.03;511703;29;1145;-68
2023/11/08 00:45:50;;;;;;;5.47;3.60;;;;;;;8.92;74.20;93558.28;511907;29;836;-68
2023/11/08 00:46:08;;;;;;;4.85;3.50;;;;;;;8.91;73.93;93554.06;511855;29;928;-68
2023/11/08 00:46:23;;;;;;;4.78;3.40;;;;;;;8.88;74.09;93566.13;511920;29;831;-68
2023/11/08 00:46:39;;;;;;;3.70;3.30;;;;;;;8.87;74.18;93559.16;511956;29;837;-68
2023/11/08 00:46:54;;;;;;;3.70;3.40;;;;;;;8.88;74.00;93555.13;511874;29;821;-68
2023/11/08 00:47:09;;;;;;;4.78;3.60;;;;;;;8.90;74.14;93563.59;511904;29;912;-68
2023/11/08 00:47:25;;;;;;;4.77;3.40;;;;;;;8.91;74.12;93558.81;511935;29;856;-68
2023/11/08 00:47:43;;;;;;;4.47;3.03;;;;;;;8.93;73.94;93559.03;511835;29;821;-68
2023/11/08 00:47:58;;;;;;;4.50;3.10;;;;;;;8.92;74.01;93561.03;511760;29;932;-68
2023/11/08 00:48:14;;;;;;;3.73;2.87;;;;;;;8.95;73.88;93557.22;511888;29;793;-68
2023/11/08 00:48:29;;;;;;;2.87;2.57;;;;;;;8.95;74.11;93554.47;511887;29;824;-68
2023/11/08 00:48:44;;;;;;;4.63;2.83;;;;;;;8.97;74.19;93556.69;511932;29;804;-68
2023/11/08 00:49:02;;;;;;;4.70;2.63;;;;;;;8.97;74.26;93553.91;511928;29;786;-68
2023/11/08 00:49:19;;;;;;;4.03;2.63;;;;;;;8.99;74.09;93554.88;511818;29;817;-68
2023/11/08 00:49:35;;;;;;;4.55;2.92;;;;;;;9.00;74.33;93559.13;511673;29;1175;-68
2023/11/08 00:49:51;;;;;;;3.50;2.47;;;;;;;9.02;74.54;93561.31;511773;29;1062;-68
2023/11/08 00:50:07;;;;;;;2.60;2.40;;;;;;;9.03;74.90;93560.78;511882;29;801;-68
2023/11/08 00:50:22;;;;;;;4.80;2.80;;;;;;;9.03;74.55;93560.78;511853;29;853;-68
2023/11/08 00:50:38;;;;;;;5.38;2.65;;;;;;;9.03;74.93;93563.53;511902;29;901;-68
2023/11/08 00:50:54;;;;;;;4.53;2.67;;;;;;;9.03;74.83;93560.78;511924;29;825;-68
2023/11/08 00:51:11;;;;;;;4.55;2.85;;;;;;;9.04;74.86;93559.53;511787;29;837;-68
2023/11/08 00:51:27;;;;;;;3.85;2.88;;;;;;;9.04;74.71;93567.78;511815;29;857;-68
2023/11/08 00:51:42;;;;;;;5.03;3.23;;;;;;;9.05;75.01;93569.25;511779;29;1431;-68
2023/11/08 00:52:00;;;;;;;5.20;3.53;;;;;;;9.06;74.50;93562.47;511841;29;833;-68
2023/11/08 00:52:16;;;;;;;4.13;3.72;;;;;;;9.07;74.66;93561.19;511947;29;891;-68
2023/11/08 00:52:32;;;;;;;4.43;3.70;;;;;;;9.07;74.42;93568.72;511899;29;837;-68
2023/11/08 00:52:51;;;;;;;5.15;3.92;;;;;;;9.09;74.40;93566.19;511865;29;900;-68
2023/11/08 00:53:08;;;;;;;5.25;4.07;;;;;;;9.09;74.33;93561.41;511644;29;939;-68
2023/11/08 00:53:23;;;;;;;4.78;4.28;;;;;;;9.09;73.91;93555.16;511786;29;1606;-68
2023/11/08 00:53:39;;;;;;;6.07;4.40;;;;;;;9.09;73.68;93568.94;511899;29;781;-68
2023/11/08 00:53:54;;;;;;;9.20;5.18;;;;;;;9.08;73.77;93557.16;511626;29;829;-68
2023/11/08 00:54:11;;;;;;;7.23;4.90;;;;;;;9.09;73.73;93561.41;511867;29;900;-68
2023/11/08 00:54:27;;;;;;;5.15;4.30;;;;;;;9.10;73.21;93559.38;511859;29;1109;-68
2023/11/08 00:54:42;;;;;;;6.05;4.80;;;;;;;9.11;73.32;93558.13;512080;29;912;-68
2023/11/08 00:54:59;;;;;;;6.50;5.22;;;;;;;9.10;72.88;93559.38;511827;29;778;-68
2023/11/08 00:55:14;;;;;;;6.63;5.30;;;;;;;9.08;72.46;93557.16;511754;29;940;-68
2023/11/08 00:55:30;;;;;;;6.68;5.18;;;;;;;9.08;72.24;93559.91;511908;29;857;-68
2023/11/08 00:55:45;;;;;;;6.40;5.27;;;;;;;9.08;72.35;93557.16;511795;29;821;-68
2023/11/08 00:56:00;;;;;;;5.43;4.80;;;;;;;9.09;71.99;93557.91;511760;29;810;-68
2023/11/08 00:56:16;;;;;;;5.77;4.30;;;;;;;9.08;71.99;93557.16;511950;29;845;-68
2023/11/08 00:56:31;;;;;;;6.00;4.40;;;;;;;9.04;71.70;93556.75;511781;29;913;-68
2023/11/08 00:56:46;;;;;;;5.13;4.20;;;;;;;9.03;71.53;93555.28;511887;29;912;-68
2023/11/08 00:57:02;;;;;;;4.67;4.13;;;;;;;9.03;71.72;93558.03;511845;29;856;-68
2023/11/08 00:57:17;;;;;;;4.30;3.90;;;;;;;9.04;71.17;93554.00;511792;29;873;-68
2023/11/08 00:57:33;;;;;;;5.20;3.95;;;;;;;9.04;71.30;93554.00;511812;29;797;-69
2023/11/08 00:57:48;;;;;;;5.90;4.50;;;;;;;9.04;71.15;93556.75;511764;29;782;-68
2023/11/08 00:58:03;;;;;;;6.43;4.90;;;;;;;9.04;71.26;93551.25;511520;29;825;-68
2023/11/08 00:58:19;;;;;;;6.38;4.75;;;;;;;9.05;71.21;93547.22;511702;29;777;-68
2023/11/08 00:58:34;;;;;;;5.07;4.30;;;;;;;9.04;71.03;93554.00;511690;29;823;-68
2023/11/08 00:58:50;;;;;;;4.30;3.90;;;;;;;9.04;70.74;93554.00;511764;29;1078;-68
2023/11/08 00:59:05;;;;;;;4.13;3.72;;;;;;;9.04;70.91;93556.75;511574;29;1918;-68
2023/11/08 00:59:21;;;;;;;5.63;4.53;;;;;;;9.01;70.56;93552.31;511682;29;1078;-68
2023/11/08 00:59:37;;;;;;;7.18;4.72;;;;;;;9.02;70.69;93559.31;511757;29;873;-68
2023/11/08 00:59:52;;;;;;;6.93;4.27;;;;;;;9.02;70.89;93553.06;511837;29;1020;-68
2023/11/08 01:00:08;;;;;;;5.43;4.00;;;;;;;9.02;70.70;93553.81;511554;29;869;-68
2023/11/08 01:00:24;;;;;;;4.63;3.90;;;;;;;9.02;70.99;93558.56;511787;29;900;-68
2023/11/08 01:00:40;;;;;;;4.75;3.70;;;;;;;9.03;71.08;93554.56;511505;29;912;-68
2023/11/08 01:00:55;;;;;;;4.97;3.33;;;;;;;8.89;71.06;93553.84;511833;29;794;-68
2023/11/08 01:01:10;;;;;;;5.20;2.83;;;;;;;8.90;70.96;93555.31;511683;29;833;-68
2023/11/08 01:01:27;;;;;;;7.50;2.80;;;;;;;8.92;71.06;93563.06;511614;29;778;-68
2023/11/08 01:01:42;;;;;;;7.57;2.90;;;;;;;8.90;71.13;93554.59;511899;29;963;-68
2023/11/08 01:01:58;;;;;;;4.80;2.80;;;;;;;8.90;71.15;93560.81;511700;29;889;-68
2023/11/08 01:02:13;;;;;;;4.07;2.80;;;;;;;8.91;71.11;93565.06;511631;29;843;-68
2023/11/08 01:02:29;;;;;;;3.73;2.90;;;;;;;8.91;70.82;93556.06;511593;29;1505;-68
2023/11/08 01:02:44;;;;;;;3.17;2.63;;;;;;;8.90;71.08;93555.31;512027;29;837;-68
2023/11/08 01:03:00;;;;;;;3.60;2.63;;;;;;;8.75;71.00;93535.91;511742;29;790;-68
2023/11/08 01:03:16;;;;;;;3.60;2.50;;;;;;;8.87;71.15;93558.41;511662;29;793;-68
2023/11/08 01:03:32;;;;;;;2.85;2.10;;;;;;;8.82;71.47;93562.78;511511;29;861;-68
2023/11/08 01:03:48;;;;;;;2.72;2.13;;;;;;;8.75;71.55;93560.66;511716;28;883;-68
2023/11/08 01:04:10;;;;;;;2.90;2.17;;;;;;;8.74;71.75;93553.69;511580;29;916;-68
2023/11/08 01:04:26;;;;;;;2.83;2.15;;;;;;;8.76;71.66;93553.16;511462;29;880;-68
2023/11/08 01:04:41;;;;;;;3.30;2.20;;;;;;;8.70;71.90;93549.78;511833;29;790;-68
2023/11/08 01:04:57;;;;;;;2.70;2.03;;;;;;;8.69;72.54;93543.53;511641;29;829;-68
2023/11/08 01:05:12;;;;;;;2.20;2.00;;;;;;;8.68;72.72;93542.09;511569;29;888;-68
2023/11/08 01:05:28;;;;;;;2.73;2.33;;;;;;;8.56;73.10;93529.81;511908;29;793;-68
2023/11/08 01:05:44;;;;;;;3.55;2.60;;;;;;;8.61;73.27;93534.47;511651;29;1553;-68
2023/11/08 01:05:59;;;;;;;3.20;2.40;;;;;;;8.61;73.23;93539.22;511666;29;809;-68
2023/11/08 01:06:15;;;;;;;3.13;2.30;;;;;;;8.63;73.31;93537.44;511752;29;786;-68
2023/11/08 01:06:31;;;;;;;4.18;2.58;;;;;;;8.64;73.26;93530.63;511806;29;804;-67
2023/11/08 01:06:47;;;;;;;3.42;2.50;;;;;;;8.67;73.41;93531.59;511730;29;853;-68
2023/11/08 01:07:04;;;;;;;2.67;2.38;;;;;;;8.68;73.25;93531.06;511672;29;1110;-68
2023/11/08 01:07:19;;;;;;;2.90;2.38;;;;;;;8.70;73.17;93522.28;511693;29;810;-68
2023/11/08 01:07:34;;;;;;;3.37;2.53;;;;;;;8.70;73.46;93525.78;511893;29;869;-68
2023/11/08 01:07:50;;;;;;;4.20;2.57;;;;;;;8.72;73.53;93520.47;511399;29;1148;-68
2023/11/08 01:08:05;;;;;;;4.00;2.70;;;;;;;8.74;73.54;93533.69;512325;28;957;-68
2023/11/08 01:08:22;;;;;;;3.27;2.80;;;;;;;8.73;73.74;93524.69;513831;28;865;-68
2023/11/08 01:08:38;;;;;;;3.17;2.60;;;;;;;8.75;73.82;93526.91;513791;28;908;-68
2023/11/08 01:08:53;;;;;;;3.17;2.60;;;;;;;8.71;73.72;93524.47;513656;28;920;-68
2023/11/08 01:09:10;;;;;;;2.90;2.40;;;;;;;8.77;73.80;93532.63;513559;28;876;-68
2023/11/08 01:09:25;;;;;;;3.75;2.50;;;;;;;8.76;73.92;93531.13;513647;28;904;-68
2023/11/08 01:09:41;;;;;;;3.80;2.70;;;;;;;8.77;73.80;93538.13;513984;28;849;-68
2023/11/08 01:09:56;;;;;;;3.30;2.70;;;;;;;8.77;73.85;93536.09;513664;28;860;-68
2023/11/08 01:10:13;;;;;;;3.60;2.80;;;;;;;8.77;73.76;93541.59;513699;28;854;-68
2023/11/08 01:10:28;;;;;;;3.45;2.75;;;;;;;8.77;73.96;93533.34;513464;28;920;-68
2023/11/08 01:10:46;;;;;;;3.43;2.80;;;;;;;8.79;73.84;93541.09;513975;28;796;-68
2023/11/08 01:11:02;;;;;;;3.33;2.72;;;;;;;8.80;73.79;93531.53;513659;28;881;-68
2023/11/08 01:11:17;;;;;;;3.73;2.80;;;;;;;8.80;73.83;93532.28;513634;28;1216;-68
2023/11/08 01:11:32;;;;;;;3.78;3.00;;;;;;;8.81;73.40;93530.28;513688;28;775;-68
2023/11/08 01:11:49;;;;;;;3.67;3.27;;;;;;;8.82;73.38;93532.50;513722;28;841;-68
2023/11/08 01:12:05;;;;;;;3.47;3.17;;;;;;;8.81;72.98;93528.28;513777;28;809;-68
2023/11/08 01:12:23;;;;;;;3.67;3.10;;;;;;;8.82;72.77;93529.00;513569;28;849;-68
2023/11/08 01:12:38;;;;;;;4.07;3.20;;;;;;;8.80;72.53;93532.28;513604;28;865;-68
2023/11/08 01:12:53;;;;;;;3.30;3.00;;;;;;;8.80;72.58;93526.78;513932;28;1073;-68
2023/11/08 01:13:09;;;;;;;3.30;2.90;;;;;;;8.75;72.22;93522.13;513625;28;885;-68
2023/11/08 01:13:24;;;;;;;5.18;3.05;;;;;;;8.79;72.15;93524.56;513785;28;785;-68
2023/11/08 01:13:40;;;;;;;5.67;3.10;;;;;;;8.79;72.10;93524.56;513613;28;762;-68
2023/11/08 01:13:55;;;;;;;5.43;3.30;;;;;;;8.80;71.74;93523.28;513900;28;821;-68
2023/11/08 01:14:10;;;;;;;6.03;3.47;;;;;;;8.79;71.63;93528.03;513703;28;864;-68
2023/11/08 01:14:26;;;;;;;4.00;3.40;;;;;;;8.75;71.55;93522.13;513574;28;1038;-68
2023/11/08 01:14:41;;;;;;;3.28;2.97;;;;;;;8.75;71.72;93524.88;513665;28;912;-68
2023/11/08 01:14:57;;;;;;;5.23;2.90;;;;;;;8.74;71.76;93520.66;513767;28;833;-68
2023/11/08 01:15:12;;;;;;;5.70;3.03;;;;;;;8.69;71.90;93509.78;513620;28;893;-68
2023/11/08 01:15:27;;;;;;;4.10;2.93;;;;;;;8.76;71.79;93518.13;513501;28;1028;-68
2023/11/08 01:15:43;;;;;;;5.03;2.80;;;;;;;8.77;71.72;93519.59;513736;28;920;-68
2023/11/08 01:15:58;;;;;;;4.50;2.80;;;;;;;8.74;72.18;93520.66;513753;28;789;-68
2023/11/08 01:16:14;;;;;;;3.30;2.80;;;;;;;8.74;72.46;93514.41;513782;28;821;-68
2023/11/08 01:16:29;;;;;;;3.33;3.03;;;;;;;8.75;73.00;93518.66;512584;28;1234;-68
2023/11/08 01:16:45;;;;;;;3.40;3.10;;;;;;;8.75;73.10;93519.38;511864;29;920;-68
2023/11/08 01:17:00;;;;;;;3.60;2.90;;;;;;;8.74;73.39;93519.91;510495;29;1375;-68
2023/11/08 01:17:16;;;;;;;4.13;3.00;;;;;;;8.73;73.54;93516.44;509620;29;758;-68
2023/11/08 01:17:31;;;;;;;3.97;3.00;;;;;;;8.74;73.63;93515.16;509692;29;847;-68
2023/11/08 01:17:47;;;;;;;3.85;2.97;;;;;;;8.75;73.68;93513.16;509949;29;936;-68